sensor_id;sensor_type;location;lat;lon;timestamp;pressure;altitude;pressure_sealevel;temperature;humidity
17060;BME280;8646;49.716;9.266;2022-12-24T00:02:14;99558.53;;;10.89;98.33
17060;BME280;8646;49.716;9.266;2022-12-24T00:05:17;99581.53;;;10.98;97.34
17060;BME280;8646;49.716;9.266;2022-12-24T00:09:09;99583.19;;;11.00;96.13
17060;BME280;8646;49.716;9.266;2022-12-24T00:12:11;99597.09;;;10.94;96.41
17060;BME280;8646;49.716;9.266;2022-12-24T00:15:16;99556.69;;;10.74;96.19
17060;BME280;8646;49.716;9.266;2022-12-24T00:18:19;99575.66;;;10.90;96.62
17060;BME280;8646;49.716;9.266;2022-12-24T00:21:22;99578.53;;;10.87;96.71
17060;BME280;8646;49.716;9.266;2022-12-24T00:24:26;99578.53;;;10.87;96.94
17060;BME280;8646;49.716;9.266;2022-12-24T00:27:32;99587.72;;;10.84;97.24
17060;BME280;8646;49.716;9.266;2022-12-24T00:30:36;99585.00;;;10.84;96.62
17060;BME280;8646;49.716;9.266;2022-12-24T00:33:40;99589.63;;;10.82;96.93
17060;BME280;8646;49.716;9.266;2022-12-24T00:36:43;99594.25;;;10.80;96.85
17060;BME280;8646;49.716;9.266;2022-12-24T00:39:47;99606.81;;;10.81;97.18
17060;BME280;8646;49.716;9.266;2022-12-24T00:42:52;99599.41;;;10.85;97.44
17060;BME280;8646;49.716;9.266;2022-12-24T00:45:57;99603.88;;;10.86;96.85
17060;BME280;8646;49.716;9.266;2022-12-24T00:49:07;99602.69;;;10.74;96.00
17060;BME280;8646;49.716;9.266;2022-12-24T00:52:10;99613.25;;;10.79;96.46
17060;BME280;8646;49.716;9.266;2022-12-24T00:55:14;99619.25;;;10.85;95.30
17060;BME280;8646;49.716;9.266;2022-12-24T00:58:17;99635.78;;;10.79;95.66
17060;BME280;8646;49.716;9.266;2022-12-24T01:01:22;99620.53;;;10.78;95.77
17060;BME280;8646;49.716;9.266;2022-12-24T01:04:26;99628.31;;;10.84;95.42
17060;BME280;8646;49.716;9.266;2022-12-24T01:07:54;99627.50;;;10.82;94.61
17060;BME280;8646;49.716;9.266;2022-12-24T01:10:59;99640.31;;;10.79;94.79
17060;BME280;8646;49.716;9.266;2022-12-24T01:14:02;99637.88;;;10.74;95.53
17060;BME280;8646;49.716;9.266;2022-12-24T01:17:05;99632.31;;;10.77;94.68
17060;BME280;8646;49.716;9.266;2022-12-24T01:20:12;99631.34;;;10.78;94.27
17060;BME280;8646;49.716;9.266;2022-12-24T01:23:15;99644.91;;;10.78;94.12
17060;BME280;8646;49.716;9.266;2022-12-24T01:26:20;99634.06;;;10.78;93.54
17060;BME280;8646;49.716;9.266;2022-12-24T01:29:25;99657.44;;;10.79;92.41
17060;BME280;8646;49.716;9.266;2022-12-24T01:32:28;99661.28;;;10.75;93.18
17060;BME280;8646;49.716;9.266;2022-12-24T01:35:31;99663.91;;;10.77;92.79
17060;BME280;8646;49.716;9.266;2022-12-24T01:38:41;99653.41;;;10.70;93.47
17060;BME280;8646;49.716;9.266;2022-12-24T01:41:48;99656.81;;;10.74;92.60
17060;BME280;8646;49.716;9.266;2022-12-24T01:45:45;99670.03;;;10.63;93.47
17060;BME280;8646;49.716;9.266;2022-12-24T01:48:52;99678.81;;;10.68;93.35
17060;BME280;8646;49.716;9.266;2022-12-24T01:52:00;99670.19;;;10.77;92.85
17060;BME280;8646;49.716;9.266;2022-12-24T01:55:13;99670.03;;;10.80;92.59
17060;BME280;8646;49.716;9.266;2022-12-24T01:58:18;99679.75;;;10.84;91.50
17060;BME280;8646;49.716;9.266;2022-12-24T02:01:23;99688.19;;;10.78;92.92
17060;BME280;8646;49.716;9.266;2022-12-24T02:04:32;99690.72;;;10.81;92.53
17060;BME280;8646;49.716;9.266;2022-12-24T02:07:35;99702.19;;;10.86;92.13
17060;BME280;8646;49.716;9.266;2022-12-24T02:10:38;99700.44;;;10.85;91.88
17060;BME280;8646;49.716;9.266;2022-12-24T02:13:54;99725.91;;;10.81;92.04
17060;BME280;8646;49.716;9.266;2022-12-24T02:17:01;99715.16;;;10.80;92.01
17060;BME280;8646;49.716;9.266;2022-12-24T02:24:19;99731.78;;;10.72;91.95
17060;BME280;8646;49.716;9.266;2022-12-24T02:27:41;99724.81;;;10.68;92.33
17060;BME280;8646;49.716;9.266;2022-12-24T02:30:51;99733.00;;;10.66;91.91
17060;BME280;8646;49.716;9.266;2022-12-24T02:34:03;99734.69;;;10.52;92.19
17060;BME280;8646;49.716;9.266;2022-12-24T02:37:12;99737.06;;;10.41;92.86
17060;BME280;8646;49.716;9.266;2022-12-24T02:40:19;99732.97;;;10.32;93.09
17060;BME280;8646;49.716;9.266;2022-12-24T02:43:27;99744.13;;;10.26;93.19
17060;BME280;8646;49.716;9.266;2022-12-24T02:46:32;99752.38;;;10.23;92.59
17060;BME280;8646;49.716;9.266;2022-12-24T02:49:37;99765.38;;;10.15;92.87
17060;BME280;8646;49.716;9.266;2022-12-24T02:52:41;99757.50;;;10.10;93.47
17060;BME280;8646;49.716;9.266;2022-12-24T02:55:51;99754.78;;;10.10;93.10
17060;BME280;8646;49.716;9.266;2022-12-24T02:59:23;99753.03;;;10.09;93.27
17060;BME280;8646;49.716;9.266;2022-12-24T03:02:43;99748.19;;;10.16;93.48
17060;BME280;8646;49.716;9.266;2022-12-24T03:05:51;99758.84;;;10.20;93.24
17060;BME280;8646;49.716;9.266;2022-12-24T03:08:59;99756.91;;;10.22;93.17
17060;BME280;8646;49.716;9.266;2022-12-24T03:12:11;99761.84;;;10.31;92.17
17060;BME280;8646;49.716;9.266;2022-12-24T03:15:18;99763.84;;;10.28;92.64
17060;BME280;8646;49.716;9.266;2022-12-24T03:18:25;99751.38;;;10.43;91.93
17060;BME280;8646;49.716;9.266;2022-12-24T03:21:30;99752.81;;;10.50;91.97
17060;BME280;8646;49.716;9.266;2022-12-24T03:24:34;99767.28;;;10.49;91.75
17060;BME280;8646;49.716;9.266;2022-12-24T03:27:37;99770.81;;;10.51;91.82
17060;BME280;8646;49.716;9.266;2022-12-24T03:30:44;99783.38;;;10.52;91.19
17060;BME280;8646;49.716;9.266;2022-12-24T03:33:50;99794.19;;;10.52;91.92
17060;BME280;8646;49.716;9.266;2022-12-24T03:36:53;99788.72;;;10.53;92.27
17060;BME280;8646;49.716;9.266;2022-12-24T03:39:59;99778.59;;;10.57;91.83
17060;BME280;8646;49.716;9.266;2022-12-24T03:43:04;99782.09;;;10.59;91.63
17060;BME280;8646;49.716;9.266;2022-12-24T03:46:07;99780.34;;;10.58;91.63
17060;BME280;8646;49.716;9.266;2022-12-24T03:49:14;99792.19;;;10.55;91.80
17060;BME280;8646;49.716;9.266;2022-12-24T03:52:16;99792.44;;;10.51;92.14
17060;BME280;8646;49.716;9.266;2022-12-24T03:55:19;99800.78;;;10.46;92.83
17060;BME280;8646;49.716;9.266;2022-12-24T03:58:22;99802.78;;;10.43;92.87
17060;BME280;8646;49.716;9.266;2022-12-24T04:01:32;99807.31;;;10.42;93.26
17060;BME280;8646;49.716;9.266;2022-12-24T04:04:43;99815.41;;;10.42;93.01
17060;BME280;8646;49.716;9.266;2022-12-24T04:07:47;99805.53;;;10.41;93.29
17060;BME280;8646;49.716;9.266;2022-12-24T04:10:50;99821.72;;;10.43;93.27
17060;BME280;8646;49.716;9.266;2022-12-24T04:13:55;99834.13;;;10.47;93.65
17060;BME280;8646;49.716;9.266;2022-12-24T04:17:00;99826.66;;;10.52;92.99
17060;BME280;8646;49.716;9.266;2022-12-24T04:20:12;99837.47;;;10.52;93.70
17060;BME280;8646;49.716;9.266;2022-12-24T04:23:17;99829.13;;;10.56;93.54
17060;BME280;8646;49.716;9.266;2022-12-24T04:26:19;99843.47;;;10.58;93.42
17060;BME280;8646;49.716;9.266;2022-12-24T04:29:22;99842.56;;;10.58;92.96
17060;BME280;8646;49.716;9.266;2022-12-24T04:32:28;99849.88;;;10.56;93.54
17060;BME280;8646;49.716;9.266;2022-12-24T04:35:32;99849.75;;;10.59;93.31
17060;BME280;8646;49.716;9.266;2022-12-24T04:38:35;99855.03;;;10.62;93.79
17060;BME280;8646;49.716;9.266;2022-12-24T04:41:41;99856.75;;;10.63;93.76
17060;BME280;8646;49.716;9.266;2022-12-24T04:44:44;99861.88;;;10.69;93.36
17060;BME280;8646;49.716;9.266;2022-12-24T04:47:46;99851.75;;;10.73;92.80
17060;BME280;8646;49.716;9.266;2022-12-24T04:50:50;99860.66;;;10.75;92.86
17060;BME280;8646;49.716;9.266;2022-12-24T04:53:56;99856.13;;;10.75;93.57
17060;BME280;8646;49.716;9.266;2022-12-24T04:57:01;99869.53;;;10.78;93.57
17060;BME280;8646;49.716;9.266;2022-12-24T05:00:07;99863.88;;;10.83;92.77
17060;BME280;8646;49.716;9.266;2022-12-24T05:03:10;99856.38;;;10.88;92.85
17060;BME280;8646;49.716;9.266;2022-12-24T05:06:19;99862.66;;;10.88;92.71
17060;BME280;8646;49.716;9.266;2022-12-24T05:09:22;99874.22;;;10.92;92.56
17060;BME280;8646;49.716;9.266;2022-12-24T05:12:27;99872.31;;;10.94;92.64
17060;BME280;8646;49.716;9.266;2022-12-24T05:15:37;99875.19;;;10.91;93.13
17060;BME280;8646;49.716;9.266;2022-12-24T05:18:44;99881.53;;;10.90;93.42
17060;BME280;8646;49.716;9.266;2022-12-24T05:21:48;99878.91;;;10.88;93.69
17060;BME280;8646;49.716;9.266;2022-12-24T05:25:11;99881.69;;;10.87;94.16
17060;BME280;8646;49.716;9.266;2022-12-24T05:28:31;99873.06;;;10.79;94.40
17060;BME280;8646;49.716;9.266;2022-12-24T05:31:35;99886.03;;;10.72;95.01
17060;BME280;8646;49.716;9.266;2022-12-24T05:34:37;99883.81;;;10.63;95.66
17060;BME280;8646;49.716;9.266;2022-12-24T05:37:41;99892.09;;;10.60;95.80
17060;BME280;8646;49.716;9.266;2022-12-24T05:40:47;99903.84;;;10.59;96.17
17060;BME280;8646;49.716;9.266;2022-12-24T05:43:51;99900.50;;;10.54;96.49
17060;BME280;8646;49.716;9.266;2022-12-24T05:46:55;99898.03;;;10.49;96.72
17060;BME280;8646;49.716;9.266;2022-12-24T05:49:58;99894.75;;;10.43;97.20
17060;BME280;8646;49.716;9.266;2022-12-24T05:53:04;99900.66;;;10.32;97.14
17060;BME280;8646;49.716;9.266;2022-12-24T05:56:18;99898.19;;;10.27;97.50
17060;BME280;8646;49.716;9.266;2022-12-24T05:59:23;99903.75;;;10.24;98.09
17060;BME280;8646;49.716;9.266;2022-12-24T06:02:28;99905.72;;;10.21;98.51
17060;BME280;8646;49.716;9.266;2022-12-24T06:05:33;99902.28;;;10.17;98.88
17060;BME280;8646;49.716;9.266;2022-12-24T06:08:46;99903.25;;;10.15;99.02
17060;BME280;8646;49.716;9.266;2022-12-24T06:11:52;99912.41;;;10.12;99.30
17060;BME280;8646;49.716;9.266;2022-12-24T06:14:56;99903.34;;;10.13;99.42
17060;BME280;8646;49.716;9.266;2022-12-24T06:17:59;99912.16;;;10.18;100.00
17060;BME280;8646;49.716;9.266;2022-12-24T06:21:03;99914.56;;;10.24;100.00
17060;BME280;8646;49.716;9.266;2022-12-24T06:24:07;99910.78;;;10.28;100.00
17060;BME280;8646;49.716;9.266;2022-12-24T06:27:10;99924.94;;;10.33;100.00
17060;BME280;8646;49.716;9.266;2022-12-24T06:30:13;99922.09;;;10.37;100.00
17060;BME280;8646;49.716;9.266;2022-12-24T06:33:24;99919.22;;;10.40;100.00
17060;BME280;8646;49.716;9.266;2022-12-24T06:36:27;99934.44;;;10.42;99.86
17060;BME280;8646;49.716;9.266;2022-12-24T06:39:34;99942.47;;;10.44;99.90
17060;BME280;8646;49.716;9.266;2022-12-24T06:42:36;99940.88;;;10.40;99.98
17060;BME280;8646;49.716;9.266;2022-12-24T06:45:44;99950.66;;;10.42;99.81
17060;BME280;8646;49.716;9.266;2022-12-24T06:48:47;99942.63;;;10.41;100.00
17060;BME280;8646;49.716;9.266;2022-12-24T06:51:56;99944.69;;;10.36;99.82
17060;BME280;8646;49.716;9.266;2022-12-24T06:55:27;99955.06;;;10.26;100.00
17060;BME280;8646;49.716;9.266;2022-12-24T06:58:30;99953.28;;;10.25;100.00
17060;BME280;8646;49.716;9.266;2022-12-24T07:01:33;99956.28;;;10.19;100.00
17060;BME280;8646;49.716;9.266;2022-12-24T07:04:38;99952.72;;;10.18;100.00
17060;BME280;8646;49.716;9.266;2022-12-24T07:07:43;99953.69;;;10.16;100.00
17060;BME280;8646;49.716;9.266;2022-12-24T07:10:48;99954.88;;;10.10;100.00
17060;BME280;8646;49.716;9.266;2022-12-24T07:13:55;99966.84;;;10.05;100.00
17060;BME280;8646;49.716;9.266;2022-12-24T07:17:12;99967.19;;;9.97;100.00
17060;BME280;8646;49.716;9.266;2022-12-24T07:20:15;99971.91;;;9.92;100.00
17060;BME280;8646;49.716;9.266;2022-12-24T07:23:18;99976.50;;;9.90;100.00
17060;BME280;8646;49.716;9.266;2022-12-24T07:26:22;99993.41;;;9.95;100.00
17060;BME280;8646;49.716;9.266;2022-12-24T07:29:25;99992.31;;;9.99;100.00
17060;BME280;8646;49.716;9.266;2022-12-24T07:32:28;99987.44;;;10.07;100.00
17060;BME280;8646;49.716;9.266;2022-12-24T07:35:36;99997.09;;;10.13;100.00
17060;BME280;8646;49.716;9.266;2022-12-24T07:38:39;100008.38;;;10.22;100.00
17060;BME280;8646;49.716;9.266;2022-12-24T07:45:16;100002.50;;;10.33;100.00
17060;BME280;8646;49.716;9.266;2022-12-24T07:48:19;100011.19;;;10.40;100.00
17060;BME280;8646;49.716;9.266;2022-12-24T07:51:21;100012.00;;;10.42;100.00
17060;BME280;8646;49.716;9.266;2022-12-24T07:54:26;100010.94;;;10.46;100.00
17060;BME280;8646;49.716;9.266;2022-12-24T07:57:29;100022.47;;;10.49;100.00
17060;BME280;8646;49.716;9.266;2022-12-24T08:00:33;100014.16;;;10.54;100.00
17060;BME280;8646;49.716;9.266;2022-12-24T08:03:38;100010.34;;;10.58;100.00
17060;BME280;8646;49.716;9.266;2022-12-24T08:06:41;100009.16;;;10.63;99.79
17060;BME280;8646;49.716;9.266;2022-12-24T08:09:45;100014.44;;;10.66;99.59
17060;BME280;8646;49.716;9.266;2022-12-24T08:12:48;100022.31;;;10.71;99.00
17060;BME280;8646;49.716;9.266;2022-12-24T08:15:52;100009.47;;;10.76;98.59
17060;BME280;8646;49.716;9.266;2022-12-24T08:18:55;100016.31;;;10.83;98.31
17060;BME280;8646;49.716;9.266;2022-12-24T08:21:58;100022.31;;;10.90;97.33
17060;BME280;8646;49.716;9.266;2022-12-24T08:25:01;100028.28;;;10.96;97.38
17060;BME280;8646;49.716;9.266;2022-12-24T08:28:04;100036.03;;;11.04;96.72
17060;BME280;8646;49.716;9.266;2022-12-24T08:31:08;100033.13;;;11.08;96.48
17060;BME280;8646;49.716;9.266;2022-12-24T08:34:11;100049.06;;;11.15;95.72
17060;BME280;8646;49.716;9.266;2022-12-24T08:37:14;100045.28;;;11.19;95.23
17060;BME280;8646;49.716;9.266;2022-12-24T08:40:17;100041.44;;;11.23;95.19
17060;BME280;8646;49.716;9.266;2022-12-24T08:43:20;100047.41;;;11.29;95.10
17060;BME280;8646;49.716;9.266;2022-12-24T08:46:27;100046.25;;;11.35;95.47
17060;BME280;8646;49.716;9.266;2022-12-24T08:49:30;100044.19;;;11.40;95.08
17060;BME280;8646;49.716;9.266;2022-12-24T08:52:32;100054.94;;;11.41;95.37
17060;BME280;8646;49.716;9.266;2022-12-24T08:55:35;100059.16;;;11.47;95.29
17060;BME280;8646;49.716;9.266;2022-12-24T08:58:39;100069.56;;;11.56;94.99
17060;BME280;8646;49.716;9.266;2022-12-24T09:01:43;100057.44;;;11.63;94.56
17060;BME280;8646;49.716;9.266;2022-12-24T09:04:47;100060.34;;;11.77;93.86
17060;BME280;8646;49.716;9.266;2022-12-24T09:07:50;100061.38;;;11.92;93.71
17060;BME280;8646;49.716;9.266;2022-12-24T09:10:52;100056.19;;;12.05;93.48
17060;BME280;8646;49.716;9.266;2022-12-24T09:13:55;100058.75;;;12.08;93.29
17060;BME280;8646;49.716;9.266;2022-12-24T09:16:59;100063.59;;;12.01;93.14
17060;BME280;8646;49.716;9.266;2022-12-24T09:20:09;100078.69;;;11.90;93.17
17060;BME280;8646;49.716;9.266;2022-12-24T09:23:12;100079.88;;;11.84;93.37
17060;BME280;8646;49.716;9.266;2022-12-24T09:26:17;100081.16;;;11.77;93.20
17060;BME280;8646;49.716;9.266;2022-12-24T09:29:20;100094.03;;;11.72;92.97
17060;BME280;8646;49.716;9.266;2022-12-24T09:32:24;100080.72;;;11.67;93.37
17060;BME280;8646;49.716;9.266;2022-12-24T09:35:27;100082.78;;;11.62;92.88
17060;BME280;8646;49.716;9.266;2022-12-24T09:38:30;100087.41;;;11.60;93.08
17060;BME280;8646;49.716;9.266;2022-12-24T09:41:41;100081.84;;;11.63;93.03
17060;BME280;8646;49.716;9.266;2022-12-24T09:44:50;100094.63;;;11.78;93.03
17060;BME280;8646;49.716;9.266;2022-12-24T09:48:00;100086.66;;;11.93;92.79
17060;BME280;8646;49.716;9.266;2022-12-24T09:51:07;100094.97;;;12.07;91.38
17060;BME280;8646;49.716;9.266;2022-12-24T09:54:14;100088.25;;;12.14;91.02
17060;BME280;8646;49.716;9.266;2022-12-24T09:57:26;100090.38;;;12.24;90.67
17060;BME280;8646;49.716;9.266;2022-12-24T10:00:34;100103.16;;;12.40;89.78
17060;BME280;8646;49.716;9.266;2022-12-24T10:03:39;100099.44;;;12.58;88.51
17060;BME280;8646;49.716;9.266;2022-12-24T10:06:48;100103.94;;;12.75;87.91
17060;BME280;8646;49.716;9.266;2022-12-24T10:10:02;100100.28;;;12.91;87.48
17060;BME280;8646;49.716;9.266;2022-12-24T10:13:15;100094.34;;;13.00;86.82
17060;BME280;8646;49.716;9.266;2022-12-24T10:16:27;100115.41;;;13.13;87.26
17060;BME280;8646;49.716;9.266;2022-12-24T10:19:43;100117.88;;;13.17;87.06
17060;BME280;8646;49.716;9.266;2022-12-24T10:22:54;100121.41;;;13.19;85.93
17060;BME280;8646;49.716;9.266;2022-12-24T10:26:07;100129.91;;;13.13;86.15
17060;BME280;8646;49.716;9.266;2022-12-24T10:29:16;100144.34;;;13.14;85.90
17060;BME280;8646;49.716;9.266;2022-12-24T10:32:21;100146.09;;;13.15;86.29
17060;BME280;8646;49.716;9.266;2022-12-24T10:35:28;100149.69;;;13.15;85.57
17060;BME280;8646;49.716;9.266;2022-12-24T10:38:34;100139.94;;;13.11;85.18
17060;BME280;8646;49.716;9.266;2022-12-24T10:41:37;100146.25;;;13.12;83.80
17060;BME280;8646;49.716;9.266;2022-12-24T10:44:40;100148.09;;;13.11;84.65
17060;BME280;8646;49.716;9.266;2022-12-24T10:47:46;100136.63;;;13.22;85.05
17060;BME280;8646;49.716;9.266;2022-12-24T10:50:56;100130.44;;;13.35;85.13
17060;BME280;8646;49.716;9.266;2022-12-24T10:54:05;100143.50;;;13.45;84.05
17060;BME280;8646;49.716;9.266;2022-12-24T10:57:22;100139.91;;;13.44;84.92
17060;BME280;8646;49.716;9.266;2022-12-24T11:00:26;100149.03;;;13.43;84.63
17060;BME280;8646;49.716;9.266;2022-12-24T11:03:37;100150.94;;;13.41;83.98
17060;BME280;8646;49.716;9.266;2022-12-24T11:06:55;100145.16;;;13.31;83.10
17060;BME280;8646;49.716;9.266;2022-12-24T11:10:23;100151.03;;;13.24;83.10
17060;BME280;8646;49.716;9.266;2022-12-24T11:13:28;100144.97;;;13.19;83.25
17060;BME280;8646;49.716;9.266;2022-12-24T11:16:48;100151.38;;;13.18;83.84
17060;BME280;8646;49.716;9.266;2022-12-24T11:19:52;100148.09;;;13.11;83.99
17060;BME280;8646;49.716;9.266;2022-12-24T11:22:56;100146.84;;;13.01;83.97
17060;BME280;8646;49.716;9.266;2022-12-24T11:26:02;100151.97;;;12.90;84.31
17060;BME280;8646;49.716;9.266;2022-12-24T11:29:12;100159.50;;;12.85;84.81
17060;BME280;8646;49.716;9.266;2022-12-24T11:32:17;100156.88;;;12.83;84.69
17060;BME280;8646;49.716;9.266;2022-12-24T11:35:28;100149.03;;;12.94;84.52
17060;BME280;8646;49.716;9.266;2022-12-24T11:38:54;100146.34;;;13.10;84.04
17060;BME280;8646;49.716;9.266;2022-12-24T11:42:01;100137.22;;;13.11;84.79
17060;BME280;8646;49.716;9.266;2022-12-24T11:45:13;100131.00;;;13.09;84.44
17060;BME280;8646;49.716;9.266;2022-12-24T11:48:27;100152.84;;;13.23;84.60
17060;BME280;8646;49.716;9.266;2022-12-24T11:51:37;100150.94;;;13.25;84.73
17060;BME280;8646;49.716;9.266;2022-12-24T11:54:58;100143.38;;;13.30;85.00
17060;BME280;8646;49.716;9.266;2022-12-24T11:58:15;100138.06;;;13.29;84.82
17060;BME280;8646;49.716;9.266;2022-12-24T12:01:22;100148.66;;;13.33;84.99
17060;BME280;8646;49.716;9.266;2022-12-24T12:04:28;100153.13;;;13.34;84.60
17060;BME280;8646;49.716;9.266;2022-12-24T12:07:34;100139.19;;;13.25;82.26
17060;BME280;8646;49.716;9.266;2022-12-24T12:10:40;100151.91;;;13.24;83.02
17060;BME280;8646;49.716;9.266;2022-12-24T12:13:52;100146.81;;;13.18;83.09
17060;BME280;8646;49.716;9.266;2022-12-24T12:17:02;100140.09;;;13.08;83.61
17060;BME280;8646;49.716;9.266;2022-12-24T12:20:10;100124.31;;;12.99;84.15
17060;BME280;8646;49.716;9.266;2022-12-24T12:23:18;100141.06;;;13.07;84.29
17060;BME280;8646;49.716;9.266;2022-12-24T12:26:25;100152.50;;;13.14;84.31
17060;BME280;8646;49.716;9.266;2022-12-24T12:29:35;100149.78;;;13.14;83.87
17060;BME280;8646;49.716;9.266;2022-12-24T12:32:47;100154.97;;;13.18;83.27
17060;BME280;8646;49.716;9.266;2022-12-24T12:36:00;100160.25;;;13.21;83.31
17060;BME280;8646;49.716;9.266;2022-12-24T12:39:04;100152.34;;;13.32;82.79
17060;BME280;8646;49.716;9.266;2022-12-24T12:42:14;100144.03;;;13.35;82.18
17060;BME280;8646;49.716;9.266;2022-12-24T12:45:30;100155.06;;;13.32;81.40
17060;BME280;8646;49.716;9.266;2022-12-24T12:48:45;100155.94;;;13.33;80.46
17060;BME280;8646;49.716;9.266;2022-12-24T12:51:56;100160.84;;;13.26;80.51
17060;BME280;8646;49.716;9.266;2022-12-24T12:55:17;100157.84;;;13.15;81.28
17060;BME280;8646;49.716;9.266;2022-12-24T12:58:30;100159.78;;;13.13;81.58
17060;BME280;8646;49.716;9.266;2022-12-24T13:01:41;100163.44;;;13.12;82.18
17060;BME280;8646;49.716;9.266;2022-12-24T13:09:04;100180.41;;;13.00;83.31
17060;BME280;8646;49.716;9.266;2022-12-24T13:12:40;100179.78;;;12.95;82.85
17060;BME280;8646;49.716;9.266;2022-12-24T13:15:59;100192.09;;;12.85;83.10
17060;BME280;8646;49.716;9.266;2022-12-24T13:19:18;100194.34;;;12.77;83.88
17060;BME280;8646;49.716;9.266;2022-12-24T13:22:39;100200.81;;;12.74;84.63
17060;BME280;8646;49.716;9.266;2022-12-24T13:25:50;100202.81;;;12.71;85.40
17060;BME280;8646;49.716;9.266;2022-12-24T13:28:54;100205.69;;;12.68;86.10
17060;BME280;8646;49.716;9.266;2022-12-24T13:32:48;100207.72;;;12.64;86.73
17060;BME280;8646;49.716;9.266;2022-12-24T13:36:01;100217.09;;;12.57;86.87
17060;BME280;8646;49.716;9.266;2022-12-24T13:39:17;100219.69;;;12.43;87.50
17060;BME280;8646;49.716;9.266;2022-12-24T13:45:56;100231.09;;;12.32;88.47
17060;BME280;8646;49.716;9.266;2022-12-24T13:49:16;100218.97;;;12.22;88.96
17060;BME280;8646;49.716;9.266;2022-12-24T13:52:23;100228.38;;;12.15;89.00
17060;BME280;8646;49.716;9.266;2022-12-24T13:55:28;100218.69;;;12.09;89.50
17060;BME280;8646;49.716;9.266;2022-12-24T13:58:32;100219.69;;;11.90;89.64
17060;BME280;8646;49.716;9.266;2022-12-24T14:01:38;100225.91;;;11.73;90.19
17060;BME280;8646;49.716;9.266;2022-12-24T14:05:01;100215.25;;;11.51;90.57
17060;BME280;8646;49.716;9.266;2022-12-24T14:08:08;100222.56;;;11.49;91.51
17060;BME280;8646;49.716;9.266;2022-12-24T14:11:14;100234.88;;;11.56;92.09
17060;BME280;8646;49.716;9.266;2022-12-24T14:14:28;100242.13;;;11.56;92.33
17060;BME280;8646;49.716;9.266;2022-12-24T14:17:34;100227.53;;;11.58;92.28
17060;BME280;8646;49.716;9.266;2022-12-24T14:20:40;100231.84;;;11.62;92.71
17060;BME280;8646;49.716;9.266;2022-12-24T14:23:52;100238.78;;;11.68;92.75
17060;BME280;8646;49.716;9.266;2022-12-24T14:26:58;100214.13;;;11.55;93.25
17060;BME280;8646;49.716;9.266;2022-12-24T14:30:05;100238.91;;;11.66;93.35
17060;BME280;8646;49.716;9.266;2022-12-24T14:33:27;100211.03;;;11.44;93.49
17060;BME280;8646;49.716;9.266;2022-12-24T14:36:32;100245.34;;;11.64;93.48
17060;BME280;8646;49.716;9.266;2022-12-24T14:39:37;100221.88;;;11.44;93.88
17060;BME280;8646;49.716;9.266;2022-12-24T14:42:50;100243.94;;;11.55;93.84
17060;BME280;8646;49.716;9.266;2022-12-24T14:45:59;100253.84;;;11.56;94.16
17060;BME280;8646;49.716;9.266;2022-12-24T14:49:26;100250.63;;;11.48;94.09
17060;BME280;8646;49.716;9.266;2022-12-24T14:52:40;100249.88;;;11.44;94.61
17060;BME280;8646;49.716;9.266;2022-12-24T14:56:13;100241.53;;;11.30;94.81
17060;BME280;8646;49.716;9.266;2022-12-24T14:59:19;100241.22;;;11.18;95.52
17060;BME280;8646;49.716;9.266;2022-12-24T15:02:23;100243.31;;;11.11;96.15
17060;BME280;8646;49.716;9.266;2022-12-24T15:05:31;100250.06;;;11.02;95.96
17060;BME280;8646;49.716;9.266;2022-12-24T15:08:43;100268.47;;;10.94;96.58
17060;BME280;8646;49.716;9.266;2022-12-24T15:11:58;100261.22;;;10.95;97.71
17060;BME280;8646;49.716;9.266;2022-12-24T15:15:02;100249.41;;;10.77;97.97
17060;BME280;8646;49.716;9.266;2022-12-24T15:18:05;100280.59;;;10.86;98.17
17060;BME280;8646;49.716;9.266;2022-12-24T15:21:14;100277.00;;;10.85;98.39
17060;BME280;8646;49.716;9.266;2022-12-24T15:24:26;100277.19;;;10.81;98.24
17060;BME280;8646;49.716;9.266;2022-12-24T15:27:31;100280.13;;;10.76;98.42
17060;BME280;8646;49.716;9.266;2022-12-24T15:30:34;100285.66;;;10.73;98.64
17060;BME280;8646;49.716;9.266;2022-12-24T15:33:37;100297.56;;;10.69;98.92
17060;BME280;8646;49.716;9.266;2022-12-24T15:36:41;100289.31;;;10.72;99.23
17060;BME280;8646;49.716;9.266;2022-12-24T15:39:52;100296.94;;;10.62;99.18
17060;BME280;8646;49.716;9.266;2022-12-24T15:42:55;100287.09;;;10.61;99.31
17060;BME280;8646;49.716;9.266;2022-12-24T15:45:59;100293.50;;;10.59;99.73
17060;BME280;8646;49.716;9.266;2022-12-24T15:49:02;100302.69;;;10.55;99.46
17060;BME280;8646;49.716;9.266;2022-12-24T15:52:07;100296.38;;;10.54;99.70
17060;BME280;8646;49.716;9.266;2022-12-24T15:55:32;100299.03;;;10.36;99.77
17060;BME280;8646;49.716;9.266;2022-12-24T15:58:37;100303.03;;;10.25;99.83
17060;BME280;8646;49.716;9.266;2022-12-24T16:01:41;100301.47;;;10.20;100.00
17060;BME280;8646;49.716;9.266;2022-12-24T16:04:45;100308.78;;;10.16;100.00
17060;BME280;8646;49.716;9.266;2022-12-24T16:08:02;100311.13;;;10.04;100.00
17060;BME280;8646;49.716;9.266;2022-12-24T16:11:16;100298.94;;;9.93;100.00
17060;BME280;8646;49.716;9.266;2022-12-24T16:14:31;100318.38;;;10.03;100.00
17060;BME280;8646;49.716;9.266;2022-12-24T16:17:34;100314.00;;;9.99;100.00
17060;BME280;8646;49.716;9.266;2022-12-24T16:20:38;100311.44;;;9.96;100.00
17060;BME280;8646;49.716;9.266;2022-12-24T16:23:45;100314.88;;;10.00;100.00
17060;BME280;8646;49.716;9.266;2022-12-24T16:26:50;100312.81;;;10.06;100.00
17060;BME280;8646;49.716;9.266;2022-12-24T16:29:53;100322.69;;;10.07;100.00
17060;BME280;8646;49.716;9.266;2022-12-24T16:33:01;100323.50;;;10.09;100.00
17060;BME280;8646;49.716;9.266;2022-12-24T16:36:04;100313.53;;;10.11;100.00
17060;BME280;8646;49.716;9.266;2022-12-24T16:39:12;100320.69;;;10.12;100.00
17060;BME280;8646;49.716;9.266;2022-12-24T16:42:26;100321.50;;;10.14;100.00
17060;BME280;8646;49.716;9.266;2022-12-24T16:45:50;100322.25;;;10.19;100.00
17060;BME280;8646;49.716;9.266;2022-12-24T16:48:53;100324.47;;;10.30;100.00
17060;BME280;8646;49.716;9.266;2022-12-24T16:51:58;100322.09;;;10.44;100.00
17060;BME280;8646;49.716;9.266;2022-12-24T16:55:01;100325.47;;;10.49;100.00